»·PEaware :: XSR361 KEWR-KJFK

XSR361 :: KEWR-KJFK

FLIGHT INFORMATION

Flight Status: Arrived
Operator: Unknown
More flights by this operator :: More flights under this callsign
Pilot: Gabor H. (24209)
Aircraft: EMBRAER PHENOM 300
(E55P)
More flights by this aircraft type
Origin: KEWR Newark Intl
United States
Destination: KJFK Kennedy Intl
United States
More flights between these airports :: More routes between these airports
Route: EWR4 BREZY V39 CMK V419 JUDDS NELIE MAD V1 DPK
File this flight plan on PilotEdge
Remarks:
Altitude:
(Current/Filed)
11,000ft
Speed:
(Current/Filed)
280kts
Departed: 03-Dec-22 07:54 AM
Arrived: 03-Dec-22 08:45 AM
Distance/Time
Traveled:
16nm/0:51
Distance/Time
To Go:
Arrived

Flight Plot

Page will automatically refresh every two minutes.

Flight plan parsing failed; only flown route is shown


Map Options




Map Legend


Flown Route
Filed Route
Departure Airport
Arrival Airport
Navaid (VOR, NDB)
Fix

Horizontal Profiles

Position Reports

Time Latitude Longitude Heading Altitude Ground
Speed
03-Dec-22 07:35 40.705531 -74.170056 39 10ft 0kts
03-Dec-22 07:36 40.705531 -74.170056 39 10ft 0kts
03-Dec-22 07:37 40.705531 -74.170056 39 10ft 0kts
03-Dec-22 07:38 40.705531 -74.170056 39 10ft 0kts
03-Dec-22 07:39 40.705480 -74.169037 117 10ft 4kts
03-Dec-22 07:40 40.703021 -74.167411 96 10ft 14kts
03-Dec-22 07:41 40.699683 -74.165599 210 10ft 15kts
03-Dec-22 07:42 40.694515 -74.168906 205 10ft 23kts
03-Dec-22 07:43 40.688289 -74.172863 205 10ft 25kts
03-Dec-22 07:44 40.682631 -74.176438 206 10ft 19kts
03-Dec-22 07:45 40.677751 -74.179536 206 10ft 19kts
03-Dec-22 07:46 40.676643 -74.180243 204 10ft 0kts
03-Dec-22 07:47 40.676639 -74.180245 204 10ft 0kts
03-Dec-22 07:48 40.676639 -74.180245 204 10ft 0kts
03-Dec-22 07:49 40.676639 -74.180245 204 10ft 0kts
03-Dec-22 07:50 40.676639 -74.180245 204 10ft 0kts
03-Dec-22 07:51 40.676262 -74.180430 181 10ft 5kts
03-Dec-22 07:52 40.675935 -74.179113 25 10ft 0kts
03-Dec-22 07:53 40.680529 -74.176160 26 11ft 121kts
03-Dec-22 07:54 40.716435 -74.135650 47 2907ft 199kts
03-Dec-22 07:55 40.759960 -74.126877 290 6198ft 223kts
03-Dec-22 07:56 40.778327 -74.216468 325 7490ft 279kts
03-Dec-22 07:57 40.851378 -74.257127 350 10943ft 304kts
03-Dec-22 07:58 40.934790 -74.230212 17 11000ft 318kts
03-Dec-22 07:59 41.019893 -74.194071 18 11000ft 326kts
03-Dec-22 08:00 41.106568 -74.157018 18 11000ft 329kts
03-Dec-22 08:01 41.169317 -74.081379 72 11000ft 330kts
03-Dec-22 08:02 41.195965 -73.964361 73 11000ft 331kts
03-Dec-22 08:03 41.221915 -73.847077 73 11000ft 332kts
03-Dec-22 08:04 41.247725 -73.729572 73 10999ft 332kts
03-Dec-22 08:05 41.273421 -73.611879 73 10999ft 332kts
03-Dec-22 08:06 41.328876 -73.516536 44 10999ft 331kts
03-Dec-22 08:07 41.393761 -73.429720 44 11000ft 332kts
03-Dec-22 08:08 41.458917 -73.342431 45 10999ft 332kts
03-Dec-22 08:09 41.524002 -73.255267 45 10999ft 332kts
03-Dec-22 08:10 41.589383 -73.168475 45 10999ft 332kts
03-Dec-22 08:11 41.654579 -73.081094 45 11000ft 332kts
03-Dec-22 08:12 41.719157 -72.993071 45 10999ft 332kts
03-Dec-22 08:13 41.783495 -72.905087 45 10999ft 332kts
03-Dec-22 08:14 41.797109 -72.798698 134 10990ft 331kts
03-Dec-22 08:15 41.709480 -72.769437 171 11000ft 331kts
03-Dec-22 08:16 41.618594 -72.751659 171 11000ft 332kts
03-Dec-22 08:17 41.527427 -72.733827 171 11000ft 332kts
03-Dec-22 08:18 41.436167 -72.716006 171 10999ft 332kts
03-Dec-22 08:19 41.344706 -72.698186 171 10999ft 332kts
03-Dec-22 08:20 41.254101 -72.676423 166 10999ft 332kts
03-Dec-22 08:21 41.164585 -72.648410 166 10999ft 332kts
03-Dec-22 08:22 41.112495 -72.578346 72 10988ft 280kts
03-Dec-22 08:23 41.171413 -72.570796 316 11003ft 263kts
03-Dec-22 08:24 41.224535 -72.637274 316 10999ft 258kts
03-Dec-22 08:25 41.285899 -72.680864 336 10995ft 257kts
03-Dec-22 08:26 41.287504 -72.765423 231 10833ft 277kts
03-Dec-22 08:27 41.229713 -72.829522 219 9438ft 270kts
03-Dec-22 08:28 41.171751 -72.892685 219 8074ft 271kts
03-Dec-22 08:29 41.115598 -72.953801 219 7695ft 249kts
03-Dec-22 08:30 41.064775 -73.009009 219 6532ft 230kts
03-Dec-22 08:31 41.016728 -73.061102 219 6000ft 220kts
03-Dec-22 08:32 40.968293 -73.113515 219 6000ft 228kts
03-Dec-22 08:33 40.929063 -73.176293 247 6001ft 227kts
03-Dec-22 08:34 40.904090 -73.254336 247 5129ft 228kts
03-Dec-22 08:35 40.880095 -73.329442 247 4940ft 229kts
03-Dec-22 08:36 40.855651 -73.411940 257 4011ft 240kts
03-Dec-22 08:37 40.840531 -73.499589 257 3782ft 243kts
03-Dec-22 08:38 40.823767 -73.581894 237 2620ft 218kts
03-Dec-22 08:39 40.791680 -73.643715 231 2000ft 195kts
03-Dec-22 08:40 40.758521 -73.683989 212 2002ft 179kts
03-Dec-22 08:41 40.717251 -73.715853 208 1684ft 152kts
03-Dec-22 08:43 40.684099 -73.739592 208 981ft 127kts
03-Dec-22 08:44 40.656891 -73.758715 209 363ft 101kts
03-Dec-22 08:45 40.636344 -73.774434 209 10ft 30kts
03-Dec-22 08:46 40.633199 -73.778279 293 7ft 2kts
03-Dec-22 08:47 40.635956 -73.784502 299 7ft 33kts
03-Dec-22 08:48 40.641135 -73.795882 304 9ft 33kts
03-Dec-22 08:49 40.645465 -73.804314 301 10ft 24kts
03-Dec-22 08:50 40.648629 -73.811230 300 10ft 17kts
03-Dec-22 08:51 40.649094 -73.810715 72 10ft 0kts
03-Dec-22 08:52 40.649094 -73.810715 72 10ft 0kts

Navigation Log

Ident Type
Flight plan parsing failed, navigation log unavailable